createdAt,value
2022-10-05T00:01:44.284Z,9.80
2022-10-05T00:04:11.970Z,9.80
2022-10-05T00:06:38.625Z,9.80
2022-10-05T00:09:18.970Z,9.80
2022-10-05T00:11:45.544Z,9.80
2022-10-05T00:14:17.593Z,9.80
2022-10-05T00:16:44.526Z,9.70
2022-10-05T00:19:18.765Z,9.70
2022-10-05T00:21:45.298Z,9.60
2022-10-05T00:24:14.977Z,9.60
2022-10-05T00:26:41.552Z,9.50
2022-10-05T00:29:14.393Z,9.50
2022-10-05T00:31:40.999Z,9.50
2022-10-05T00:34:07.555Z,9.50
2022-10-05T00:36:34.181Z,9.40
2022-10-05T00:39:01.594Z,9.40
2022-10-05T00:41:38.133Z,9.40
2022-10-05T00:44:10.710Z,9.40
2022-10-05T00:46:50.476Z,9.40
2022-10-05T00:49:22.254Z,9.40
2022-10-05T00:52:01.769Z,9.40
2022-10-05T00:54:41.236Z,9.40
2022-10-05T00:57:10.221Z,9.40
2022-10-05T00:59:42.098Z,9.40
2022-10-05T01:02:27.637Z,9.40
2022-10-05T01:04:57.598Z,9.40
2022-10-05T01:07:30.210Z,9.30
2022-10-05T01:10:02.519Z,9.30
2022-10-05T01:12:36.501Z,9.30
2022-10-05T01:15:09.119Z,9.30
2022-10-05T01:17:41.888Z,9.20
2022-10-05T01:20:28.804Z,9.20
2022-10-05T01:23:13.567Z,9.20
2022-10-05T01:25:58.732Z,9.10
2022-10-05T01:28:37.881Z,9.10
2022-10-05T01:31:22.072Z,9.10
2022-10-05T01:33:51.606Z,9.10
2022-10-05T01:36:25.584Z,9.10
2022-10-05T01:38:55.197Z,9.10
2022-10-05T01:41:46.466Z,9.10
2022-10-05T01:44:15.339Z,9.10
2022-10-05T01:46:45.037Z,9.10
2022-10-05T01:49:30.679Z,9.10
2022-10-05T01:52:16.070Z,9.00
2022-10-05T01:54:57.625Z,9.00
2022-10-05T01:57:30.253Z,9.00
2022-10-05T02:00:08.172Z,9.00
2022-10-05T02:02:38.487Z,9.00
2022-10-05T02:05:08.410Z,8.90
2022-10-05T02:07:45.717Z,8.90
2022-10-05T02:10:31.158Z,8.90
2022-10-05T02:13:00.679Z,8.90
2022-10-05T02:15:29.597Z,8.80
2022-10-05T02:18:06.628Z,8.80
2022-10-05T02:20:34.743Z,8.80
2022-10-05T02:23:07.713Z,8.80
2022-10-05T02:25:36.381Z,8.80
2022-10-05T02:28:09.731Z,8.80
2022-10-05T02:30:42.301Z,8.80
2022-10-05T02:33:17.478Z,8.70
2022-10-05T02:35:46.369Z,8.60
2022-10-05T02:38:32.386Z,8.70
2022-10-05T02:41:19.382Z,8.60
2022-10-05T02:43:48.712Z,8.70
2022-10-05T02:46:15.349Z,8.70
2022-10-05T02:48:44.720Z,8.80
2022-10-05T02:51:22.388Z,8.80
2022-10-05T02:54:05.661Z,8.80
2022-10-05T02:56:34.664Z,8.80
2022-10-05T02:59:27.415Z,8.80
2022-10-05T03:02:04.646Z,8.70
2022-10-05T03:04:49.861Z,8.70
2022-10-05T03:07:54.206Z,8.70
2022-10-05T03:10:29.131Z,8.70
2022-10-05T03:13:00.938Z,8.70
2022-10-05T03:15:38.257Z,8.70
2022-10-05T03:18:19.317Z,8.60
2022-10-05T03:20:54.965Z,8.60
2022-10-05T03:23:38.450Z,8.60
2022-10-05T03:26:13.583Z,8.50
2022-10-05T03:28:40.131Z,8.50
2022-10-05T03:31:14.724Z,8.50
2022-10-05T03:33:44.437Z,8.60
2022-10-05T03:36:40.316Z,8.60
2022-10-05T03:39:12.846Z,8.60
2022-10-05T03:41:46.106Z,8.50
2022-10-05T03:44:28.204Z,8.50
2022-10-05T03:47:13.300Z,8.50
2022-10-05T03:49:58.410Z,8.50
2022-10-05T03:52:44.088Z,8.60
2022-10-05T03:55:17.362Z,8.60
2022-10-05T03:57:44.183Z,8.60
2022-10-05T04:00:15.982Z,8.60
2022-10-05T04:02:57.806Z,8.60
2022-10-05T04:05:28.949Z,8.60
2022-10-05T04:08:18.434Z,8.60
2022-10-05T04:10:52.562Z,8.50
2022-10-05T04:13:37.269Z,8.50
2022-10-05T04:16:14.363Z,8.50
2022-10-05T04:18:44.752Z,8.50
2022-10-05T04:21:34.275Z,8.50
2022-10-05T04:24:04.280Z,8.50
2022-10-05T04:26:35.219Z,8.40
2022-10-05T04:29:16.525Z,8.40
2022-10-05T04:32:01.016Z,8.40
2022-10-05T04:34:38.376Z,8.40
2022-10-05T04:37:07.471Z,8.40
2022-10-05T04:39:52.989Z,8.40
2022-10-05T04:42:54.874Z,8.40
2022-10-05T04:45:32.293Z,8.30
2022-10-05T04:48:06.954Z,8.30
2022-10-05T04:50:33.454Z,8.30
2022-10-05T04:53:02.354Z,8.30
2022-10-05T04:55:47.949Z,8.30
2022-10-05T04:58:33.199Z,8.30
2022-10-05T05:01:15.097Z,8.30
2022-10-05T05:03:44.421Z,8.20
2022-10-05T05:06:29.104Z,8.30
2022-10-05T05:09:04.655Z,8.30
2022-10-05T05:11:49.937Z,8.30
2022-10-05T05:14:16.493Z,8.30
2022-10-05T05:16:44.483Z,8.30
2022-10-05T05:19:46.801Z,8.30
2022-10-05T05:22:13.340Z,8.30
2022-10-05T05:24:57.571Z,8.20
2022-10-05T05:27:36.363Z,8.20
2022-10-05T05:30:26.594Z,8.20
2022-10-05T05:33:08.640Z,8.20
2022-10-05T05:35:38.047Z,8.20
2022-10-05T05:38:14.618Z,8.20
2022-10-05T05:40:50.305Z,8.30
2022-10-05T05:43:34.967Z,8.30
2022-10-05T05:46:12.997Z,8.30
2022-10-05T05:48:47.144Z,8.30
2022-10-05T05:51:32.675Z,8.30
2022-10-05T05:54:17.991Z,8.30
2022-10-05T05:57:11.014Z,8.30
2022-10-05T05:59:46.443Z,8.30
2022-10-05T06:02:15.859Z,8.30
2022-10-05T06:04:58.435Z,8.30
2022-10-05T06:07:30.836Z,8.40
2022-10-05T06:10:01.510Z,8.40
2022-10-05T06:12:35.978Z,8.40
2022-10-05T06:15:15.722Z,8.50
2022-10-05T06:17:47.166Z,8.50
2022-10-05T06:20:21.443Z,8.40
2022-10-05T06:22:49.451Z,8.50
2022-10-05T06:25:22.678Z,8.50
2022-10-05T06:28:07.962Z,8.50
2022-10-05T06:30:48.681Z,8.60
2022-10-05T06:33:22.738Z,8.60
2022-10-05T06:35:55.601Z,8.60
2022-10-05T06:38:25.237Z,8.60
2022-10-05T06:41:10.724Z,8.70
2022-10-05T06:43:55.964Z,8.70
2022-10-05T06:46:25.993Z,8.80
2022-10-05T06:49:01.763Z,8.80
2022-10-05T06:51:35.919Z,8.90
2022-10-05T06:54:22.684Z,9.00
2022-10-05T06:56:57.845Z,9.00
2022-10-05T06:59:31.195Z,9.10
2022-10-05T07:02:12.817Z,9.20
2022-10-05T07:04:39.350Z,9.20
2022-10-05T07:07:11.615Z,9.30
2022-10-05T07:09:56.915Z,9.30
2022-10-05T07:12:23.421Z,9.40
2022-10-05T07:15:07.746Z,9.40
2022-10-05T07:17:44.181Z,9.50
2022-10-05T07:20:20.094Z,9.60
2022-10-05T07:22:57.489Z,9.70
2022-10-05T07:25:28.776Z,9.80
2022-10-05T07:28:21.410Z,9.80
2022-10-05T07:30:55.844Z,9.90
2022-10-05T07:33:25.473Z,9.90
2022-10-05T07:36:17.238Z,10.00
2022-10-05T07:38:53.793Z,10.00
2022-10-05T07:41:26.638Z,10.00
2022-10-05T07:44:03.295Z,10.00
2022-10-05T07:46:46.548Z,10.00
2022-10-05T07:49:16.197Z,10.00
2022-10-05T07:51:47.095Z,10.00
2022-10-05T07:54:13.586Z,10.10
2022-10-05T07:56:51.411Z,10.10
2022-10-05T07:59:17.966Z,10.10
2022-10-05T08:01:46.062Z,10.20
2022-10-05T08:04:12.626Z,10.30
2022-10-05T08:06:54.112Z,10.30
2022-10-05T08:09:26.408Z,10.40
2022-10-05T08:11:58.551Z,10.50
2022-10-05T08:14:38.816Z,10.50
2022-10-05T08:17:11.792Z,10.40
2022-10-05T08:19:48.581Z,10.50
2022-10-05T08:22:20.583Z,10.60
2022-10-05T08:24:57.863Z,10.60
2022-10-05T08:28:03.089Z,10.70
2022-10-05T08:30:31.044Z,10.70
2022-10-05T08:33:05.427Z,10.80
2022-10-05T08:35:37.870Z,10.80
2022-10-05T08:38:09.510Z,10.90
2022-10-05T08:41:14.744Z,10.90
2022-10-05T08:44:04.539Z,11.00
2022-10-05T08:46:41.905Z,11.00
2022-10-05T08:49:11.273Z,11.10
2022-10-05T08:51:40.676Z,11.10
2022-10-05T08:54:26.205Z,11.20
2022-10-05T08:57:22.074Z,11.30
2022-10-05T08:59:56.886Z,11.30
2022-10-05T09:02:23.401Z,11.30
2022-10-05T09:05:13.664Z,11.30
2022-10-05T09:07:43.367Z,11.50
2022-10-05T09:10:13.093Z,11.50
2022-10-05T09:12:42.066Z,11.60
2022-10-05T09:15:38.111Z,11.70
2022-10-05T09:18:10.657Z,11.80
2022-10-05T09:21:03.598Z,11.80
2022-10-05T09:23:35.901Z,11.90
2022-10-05T09:26:23.310Z,12.00
2022-10-05T09:29:08.371Z,12.10
2022-10-05T09:31:34.974Z,12.10
2022-10-05T09:34:07.757Z,12.20
2022-10-05T09:36:53.029Z,12.30
2022-10-05T09:39:19.585Z,12.40
2022-10-05T09:41:56.770Z,12.50
2022-10-05T09:44:29.538Z,12.60
2022-10-05T09:47:26.026Z,12.70
2022-10-05T09:49:52.568Z,12.80
2022-10-05T09:52:40.317Z,12.90
2022-10-05T09:55:08.160Z,13.00
2022-10-05T09:57:49.373Z,13.10
2022-10-05T10:00:21.036Z,13.10
2022-10-05T10:02:56.777Z,13.30
2022-10-05T10:05:26.315Z,13.40
2022-10-05T10:07:55.604Z,13.40
2022-10-05T10:10:40.764Z,13.50
2022-10-05T10:13:28.825Z,13.60
2022-10-05T10:16:04.378Z,13.70
2022-10-05T10:18:49.522Z,13.80
2022-10-05T10:21:34.496Z,13.80
2022-10-05T10:24:01.060Z,14.00
2022-10-05T10:26:39.593Z,14.10
2022-10-05T10:29:06.082Z,14.20
2022-10-05T10:31:41.893Z,14.30
2022-10-05T10:34:27.509Z,14.50
2022-10-05T10:37:12.693Z,14.70
2022-10-05T10:39:39.381Z,14.80
2022-10-05T10:42:26.485Z,14.80
2022-10-05T10:45:16.418Z,14.90
2022-10-05T10:47:49.293Z,15.10
2022-10-05T10:50:24.326Z,15.20
2022-10-05T10:52:53.851Z,15.40
2022-10-05T10:55:34.750Z,15.60
2022-10-05T10:58:20.059Z,15.70
2022-10-05T11:00:49.138Z,15.80
2022-10-05T11:03:15.739Z,15.90
2022-10-05T11:05:48.799Z,16.10
2022-10-05T11:08:18.380Z,16.20
2022-10-05T11:10:47.753Z,16.20
2022-10-05T11:13:26.619Z,16.30
2022-10-05T11:16:13.428Z,16.40
2022-10-05T11:18:57.022Z,16.60
2022-10-05T11:21:31.621Z,16.80
2022-10-05T11:24:24.958Z,16.80
2022-10-05T11:26:54.487Z,16.90
2022-10-05T11:29:21.025Z,16.90
2022-10-05T11:31:59.658Z,17.00
2022-10-05T11:34:45.040Z,17.00
2022-10-05T11:37:11.609Z,17.10
2022-10-05T11:39:48.242Z,17.20
2022-10-05T11:42:32.574Z,17.30
2022-10-05T11:45:06.192Z,17.30
2022-10-05T11:47:32.743Z,17.40
2022-10-05T11:50:11.634Z,17.40
2022-10-05T11:52:47.153Z,17.40
2022-10-05T11:55:25.373Z,17.50
2022-10-05T11:57:51.897Z,17.50
2022-10-05T12:00:20.800Z,17.60
2022-10-05T12:02:53.321Z,17.60
2022-10-05T12:05:24.685Z,17.60
2022-10-05T12:07:53.736Z,17.70
2022-10-05T12:10:22.588Z,17.70
2022-10-05T12:13:08.589Z,17.80
2022-10-05T12:15:37.546Z,17.80
2022-10-05T12:18:13.489Z,17.80
2022-10-05T12:20:45.685Z,17.80
2022-10-05T12:23:22.262Z,17.90
2022-10-05T12:25:52.128Z,17.90
2022-10-05T12:28:48.071Z,18.00
2022-10-05T12:31:26.931Z,18.10
2022-10-05T12:33:53.439Z,18.10
2022-10-05T12:36:36.025Z,18.10
2022-10-05T12:39:27.650Z,18.00
2022-10-05T12:42:01.028Z,18.00
2022-10-05T12:44:45.779Z,18.10
2022-10-05T12:47:30.285Z,18.10
2022-10-05T12:50:09.010Z,18.30
2022-10-05T12:52:46.053Z,18.40
2022-10-05T12:55:12.539Z,18.50
2022-10-05T12:57:53.126Z,18.50
2022-10-05T13:00:24.353Z,18.50
2022-10-05T13:02:57.967Z,18.60
2022-10-05T13:05:26.896Z,18.60
2022-10-05T13:07:53.404Z,18.70
2022-10-05T13:10:35.296Z,18.70
2022-10-05T13:13:04.261Z,18.70
2022-10-05T13:15:42.412Z,18.70
2022-10-05T13:18:27.601Z,18.70
2022-10-05T13:21:04.401Z,18.70
2022-10-05T13:23:51.645Z,18.70
2022-10-05T13:26:35.191Z,18.80
2022-10-05T13:29:20.503Z,18.70
2022-10-05T13:31:49.185Z,18.80
2022-10-05T13:34:31.400Z,18.70
2022-10-05T13:37:14.995Z,18.80
2022-10-05T13:39:47.663Z,18.80
2022-10-05T13:42:17.066Z,18.80
2022-10-05T13:44:53.737Z,18.80
2022-10-05T13:47:40.775Z,18.90
2022-10-05T13:50:16.489Z,18.90
2022-10-05T13:52:46.053Z,18.90
2022-10-05T13:55:31.076Z,18.90
2022-10-05T13:58:05.868Z,18.90
2022-10-05T14:00:35.892Z,18.90
2022-10-05T14:03:22.826Z,18.90
2022-10-05T14:05:55.826Z,19.00
2022-10-05T14:08:26.318Z,19.00
2022-10-05T14:10:54.293Z,19.00
2022-10-05T14:13:20.828Z,19.00
2022-10-05T14:16:13.841Z,19.00
2022-10-05T14:18:51.759Z,19.10
2022-10-05T14:21:19.816Z,19.10
2022-10-05T14:23:48.730Z,19.10
2022-10-05T14:26:24.547Z,19.10
2022-10-05T14:28:58.922Z,19.10
2022-10-05T14:31:28.368Z,19.10
2022-10-05T14:33:54.951Z,19.10
2022-10-05T14:36:36.519Z,19.20
2022-10-05T14:39:04.986Z,19.20
2022-10-05T14:41:37.786Z,19.20
2022-10-05T14:44:24.329Z,19.20
2022-10-05T14:47:01.308Z,19.20
2022-10-05T14:49:36.095Z,19.20
2022-10-05T14:52:25.576Z,19.20
2022-10-05T14:54:59.115Z,19.10
2022-10-05T14:57:25.719Z,19.10
2022-10-05T14:59:59.883Z,19.10
2022-10-05T15:02:45.129Z,19.10
2022-10-05T15:05:17.040Z,19.10
2022-10-05T15:07:45.530Z,19.10
2022-10-05T15:10:26.891Z,19.10
2022-10-05T15:12:58.716Z,19.10
2022-10-05T15:15:33.630Z,19.10
2022-10-05T15:18:03.829Z,19.10
2022-10-05T15:20:30.362Z,19.00
2022-10-05T15:23:07.891Z,19.00
2022-10-05T15:25:43.160Z,19.00
2022-10-05T15:28:09.762Z,19.00
2022-10-05T15:30:40.968Z,19.00
2022-10-05T15:33:19.827Z,19.00
2022-10-05T15:36:06.576Z,18.90
2022-10-05T15:38:36.589Z,18.90
2022-10-05T15:41:15.869Z,18.90
2022-10-05T15:43:47.843Z,18.90
2022-10-05T15:46:24.136Z,18.80
2022-10-05T15:48:58.666Z,18.90
2022-10-05T15:51:30.611Z,18.80
2022-10-05T15:54:25.107Z,18.80
2022-10-05T15:56:59.399Z,18.70
2022-10-05T15:59:30.273Z,18.70
2022-10-05T16:02:00.929Z,18.70
2022-10-05T16:04:41.241Z,18.70
2022-10-05T16:07:31.462Z,18.70
2022-10-05T16:10:07.116Z,18.70
2022-10-05T16:12:36.491Z,18.60
2022-10-05T16:15:03.016Z,18.60
2022-10-05T16:17:40.886Z,18.60
2022-10-05T16:20:14.941Z,18.50
2022-10-05T16:23:01.135Z,18.50
2022-10-05T16:25:36.971Z,18.50
2022-10-05T16:28:09.632Z,18.40
2022-10-05T16:30:58.747Z,18.40
2022-10-05T16:33:34.570Z,18.40
2022-10-05T16:36:03.362Z,18.30
2022-10-05T16:38:29.933Z,18.30
2022-10-05T16:41:12.669Z,18.20
2022-10-05T16:43:49.407Z,18.20
2022-10-05T16:46:34.415Z,18.20
2022-10-05T16:49:19.542Z,18.20
2022-10-05T16:51:57.452Z,18.10
2022-10-05T16:54:26.884Z,18.10
2022-10-05T16:57:14.315Z,18.00
2022-10-05T16:59:46.980Z,18.00
2022-10-05T17:02:29.039Z,17.90
2022-10-05T17:05:10.104Z,17.80
2022-10-05T17:07:45.991Z,17.80
2022-10-05T17:10:44.945Z,17.70
2022-10-05T17:13:16.166Z,17.70
2022-10-05T17:15:42.754Z,17.70
2022-10-05T17:18:23.554Z,17.60
2022-10-05T17:20:55.396Z,17.50
2022-10-05T17:23:31.132Z,17.50
2022-10-05T17:26:16.774Z,17.40
2022-10-05T17:28:49.410Z,17.40
2022-10-05T17:31:17.261Z,17.40
2022-10-05T17:33:59.232Z,17.30
2022-10-05T17:36:40.171Z,17.20
2022-10-05T17:39:14.174Z,17.20
2022-10-05T17:41:40.786Z,17.10
2022-10-05T17:44:13.510Z,17.10
2022-10-05T17:46:45.445Z,17.00
2022-10-05T17:49:30.864Z,17.00
2022-10-05T17:52:19.394Z,16.90
2022-10-05T17:55:04.564Z,16.80
2022-10-05T17:57:37.066Z,16.80
2022-10-05T18:00:03.552Z,16.70
2022-10-05T18:02:36.882Z,16.70
2022-10-05T18:05:06.649Z,16.60
2022-10-05T18:07:34.625Z,16.60
2022-10-05T18:10:01.277Z,16.50
2022-10-05T18:12:40.859Z,16.50
2022-10-05T18:15:07.422Z,16.40
2022-10-05T18:17:36.074Z,16.40
2022-10-05T18:20:13.271Z,16.30
2022-10-05T18:22:39.831Z,16.30
2022-10-05T18:25:18.374Z,16.20
2022-10-05T18:28:20.562Z,16.20
2022-10-05T18:31:06.117Z,16.10
2022-10-05T18:33:53.077Z,16.10
2022-10-05T18:36:23.936Z,16.00
2022-10-05T18:38:53.671Z,16.00
2022-10-05T18:41:20.194Z,15.90
2022-10-05T18:43:58.116Z,15.90
2022-10-05T18:46:30.196Z,15.90
2022-10-05T18:49:02.619Z,15.90
2022-10-05T18:51:46.358Z,15.80
2022-10-05T18:54:31.735Z,15.80
2022-10-05T18:57:01.906Z,15.70
2022-10-05T18:59:46.437Z,15.60
2022-10-05T19:02:19.778Z,15.50
2022-10-05T19:04:58.831Z,15.50
2022-10-05T19:07:30.463Z,15.50
2022-10-05T19:10:06.803Z,15.40
2022-10-05T19:12:41.551Z,15.40
2022-10-05T19:15:27.074Z,15.40
2022-10-05T19:17:58.956Z,15.50
2022-10-05T19:20:35.546Z,15.40
2022-10-05T19:23:02.146Z,15.30
2022-10-05T19:25:36.648Z,15.30
2022-10-05T19:28:10.751Z,15.30
2022-10-05T19:30:54.840Z,15.30
2022-10-05T19:33:27.604Z,15.20
2022-10-05T19:36:00.616Z,15.30
2022-10-05T19:38:36.469Z,15.20
2022-10-05T19:41:08.498Z,15.20
2022-10-05T19:43:37.925Z,15.20
2022-10-05T19:46:23.106Z,15.10
2022-10-05T19:48:51.361Z,15.20
2022-10-05T19:51:25.340Z,15.10
2022-10-05T19:53:55.952Z,15.00
2022-10-05T19:56:25.987Z,15.00
2022-10-05T19:59:02.053Z,15.00
2022-10-05T20:01:35.341Z,15.00
2022-10-05T20:04:05.004Z,14.90
2022-10-05T20:06:31.614Z,15.00
2022-10-05T20:09:00.229Z,15.00
2022-10-05T20:11:27.652Z,15.00
2022-10-05T20:13:56.848Z,15.00
2022-10-05T20:16:45.487Z,15.00
2022-10-05T20:19:36.538Z,15.00
2022-10-05T20:22:21.795Z,14.90
2022-10-05T20:24:49.576Z,14.90
2022-10-05T20:27:34.500Z,14.80
2022-10-05T20:30:06.355Z,14.70
2022-10-05T20:32:33.295Z,14.60
2022-10-05T20:34:59.826Z,14.50
2022-10-05T20:37:28.855Z,14.50
2022-10-05T20:39:55.371Z,14.50
2022-10-05T20:42:23.679Z,14.50
2022-10-05T20:44:55.780Z,14.60
2022-10-05T20:47:25.777Z,14.60
2022-10-05T20:49:54.469Z,14.60
2022-10-05T20:52:22.163Z,14.60
2022-10-05T20:54:52.889Z,14.60
2022-10-05T20:57:23.873Z,14.60
2022-10-05T20:59:52.707Z,14.60
2022-10-05T21:02:19.593Z,14.60
2022-10-05T21:04:47.668Z,14.60
2022-10-05T21:07:18.154Z,14.70
2022-10-05T21:09:46.443Z,14.60
2022-10-05T21:12:13.728Z,14.60
2022-10-05T21:14:40.541Z,14.60
2022-10-05T21:17:07.291Z,14.50
2022-10-05T21:19:38.178Z,14.50
2022-10-05T21:22:07.275Z,14.50
2022-10-05T21:24:35.154Z,14.40
2022-10-05T21:27:04.429Z,14.40
2022-10-05T21:29:31.387Z,14.40
2022-10-05T21:31:57.977Z,14.40
2022-10-05T21:34:26.798Z,14.40
2022-10-05T21:36:55.766Z,14.30
2022-10-05T21:39:22.361Z,14.40
2022-10-05T21:41:49.837Z,14.40
2022-10-05T21:44:16.647Z,14.50
2022-10-05T21:46:43.585Z,14.50
2022-10-05T21:49:16.079Z,14.70
2022-10-05T21:51:46.287Z,14.70
2022-10-05T21:54:17.464Z,14.80
2022-10-05T21:56:48.649Z,14.80
2022-10-05T21:59:16.048Z,14.80
2022-10-05T22:01:42.557Z,14.90
2022-10-05T22:04:09.163Z,15.00
2022-10-05T22:06:36.016Z,15.00
2022-10-05T22:09:03.866Z,15.10
2022-10-05T22:11:33.248Z,15.10
2022-10-05T22:14:02.629Z,15.10
2022-10-05T22:16:33.206Z,15.20
2022-10-05T22:19:03.599Z,15.20
2022-10-05T22:21:30.482Z,15.20
2022-10-05T22:23:57.307Z,15.20
2022-10-05T22:26:26.899Z,15.20
2022-10-05T22:28:56.934Z,15.30
2022-10-05T22:31:23.722Z,15.30
2022-10-05T22:33:50.408Z,15.20
2022-10-05T22:36:17.037Z,15.30
2022-10-05T22:38:47.510Z,15.30
2022-10-05T22:41:14.430Z,15.30
2022-10-05T22:43:43.205Z,15.40
2022-10-05T22:46:10.804Z,15.40
2022-10-05T22:48:37.596Z,15.30
2022-10-05T22:51:04.453Z,15.40
2022-10-05T22:53:31.046Z,15.40
2022-10-05T22:55:57.571Z,15.40
2022-10-05T22:58:24.276Z,15.40
2022-10-05T23:00:58.561Z,15.40
2022-10-05T23:03:25.565Z,15.40
2022-10-05T23:06:00.537Z,15.40
2022-10-05T23:08:29.558Z,15.40
2022-10-05T23:11:10.467Z,15.40
2022-10-05T23:13:37.324Z,15.40
2022-10-05T23:16:06.669Z,15.40
2022-10-05T23:18:35.581Z,15.50
2022-10-05T23:21:02.232Z,15.50
2022-10-05T23:23:28.717Z,15.50
2022-10-05T23:25:59.090Z,15.50
2022-10-05T23:28:26.337Z,15.50
2022-10-05T23:30:57.300Z,15.50
2022-10-05T23:33:23.862Z,15.60
2022-10-05T23:35:56.742Z,15.60
2022-10-05T23:38:23.429Z,15.50
2022-10-05T23:40:55.263Z,15.60
2022-10-05T23:43:22.435Z,15.60
2022-10-05T23:45:49.066Z,15.60
2022-10-05T23:48:15.616Z,15.50
2022-10-05T23:50:45.773Z,15.50
2022-10-05T23:53:12.578Z,15.60
2022-10-05T23:55:39.100Z,15.50
2022-10-05T23:58:05.637Z,15.50
